KMYV/MYV METAR and TAF weather

Enter ICAO airport designator
Station Type Date Time Source
KMYV METAR 2020/09/22 04:53 UTC NOAA

KMYV 220453Z AUTO 13006KT 8SM CLR 21/10 A2986 RMK AO2 SLP113 T02110100


Station Type Date Time Source
KMYV Decoded METAR 2020/09/22 04:53 UTC NOAA

MARYSVILLE YUBA COUNTY, CA, United States (KMYV) 39-06N 121-34W 21M
Sep 22, 2020 - 12:53 AM EDT / 2020.09.22 0453 UTC
Wind: from the SE (130 degrees) at 7 MPH (6 KT):0
Visibility: 8 mile(s):0
Sky conditions: clear
Temperature: 70.0 F (21.1 C)
Dew Point: 50.0 F (10.0 C)
Relative Humidity: 49%
Pressure (altimeter): 29.86 in. Hg (1011 hPa)
ob: KMYV 220453Z AUTO 13006KT 8SM CLR 21/10 A2986 RMK AO2 SLP113 T02110100
cycle: 5

Station Type Date Time Source
KMYV TAF UTC NOAA

Error!

Example: see airport list